Carnival Valor — H3VR — position and weather

sailwx.info

Track history (hours):
 
Tides and Currents Weather Stations Pressure Air Temp Water Temp Dewpoint Dewpoint Depression Visibility Wind Speed Wind Dir Waves Ship Positions

Carnival Valor

Last reported at 2019-Oct-17 18:30 UTC. Time now 2019-Oct-17 18:52 UTC.
Position N 29°56' W 090°04'.

Type: Ship. MMSI: 354298000.

Date/timePositionNaut miles runAvg speedWind from/ knotsBaromVisibWave heightAir tempDewpointWater temp
2019-Oct-17 18:30N 29°56' W 090°04'0 0.0
2019-Oct-17 18:00N 29°56' W 090°04'0 0.0
2019-Oct-17 17:29N 29°56' W 090°04'0 0.0
2019-Oct-17 16:59N 29°56' W 090°04'0 0.0
2019-Oct-17 16:29N 29°56' W 090°04'0 0.0
2019-Oct-17 15:59N 29°56' W 090°04'0 0.0
2019-Oct-17 15:28N 29°56' W 090°04'0 0.0
2019-Oct-17 14:58N 29°56' W 090°04'0 0.0
2019-Oct-17 14:25N 29°56' W 090°04'0 0.0
2019-Oct-17 13:55N 29°56' W 090°04'0 0.0
2019-Oct-17 13:28N 29°56' W 090°04'0 0.0
2019-Oct-17 13:00N 29°56' W 090°04'0 0.0
2019-Oct-17 12:30N 29°56' W 090°04'0 0.0
2019-Oct-17 12:00N 29°56' W 090°04'0 0.0
2019-Oct-17 11:30N 29°56' W 090°04'0 0.0
2019-Oct-17 11:00N 29°56' W 090°04'0 0.0
2019-Oct-17 10:30N 29°56' W 090°04'0 0.4
2019-Oct-17 10:00N 29°57' W 090°04'3 6.5
2019-Oct-17 09:30N 29°56' W 089°60'510.4
2019-Oct-17 09:00N 29°54' W 089°55'3 7.0
2019-Oct-17 08:30N 29°53' W 089°58'612.7
2019-Oct-17 08:00N 29°47' W 090°01'612.8
2019-Oct-17 07:30N 29°41' W 089°58'611.7
2019-Oct-17 07:00N 29°37' W 089°53'813.8
2019-Oct-17 06:28N 29°33' W 089°46'715.4
2019-Oct-17 06:00N 29°28' W 089°40'711.6
2019-Oct-17 05:26N 29°23' W 089°35'16519.6
2019-Oct-16 21:00N 27°30' W 087°18'36717.7 350 / 151011.310.8 28.0 30.0
2019-Oct-16 00:19N 21°45' W 089°33'516.2
2019-Oct-16 00:01N 21°40' W 089°36'815.6
2019-Oct-15 23:30N 21°33' W 089°39'714.2
2019-Oct-15 23:00N 21°26' W 089°42'611.5
2019-Oct-15 22:30N 21°21' W 089°41'0 0.6
2019-Oct-15 21:59N 21°21' W 089°41'0 0.0
2019-Oct-15 21:29N 21°21' W 089°41'0 0.0
2019-Oct-15 20:59N 21°21' W 089°41'0 0.0
2019-Oct-15 19:56N 21°21' W 089°41'0 0.0
2019-Oct-15 19:29N 21°21' W 089°41'0 0.0
2019-Oct-15 18:58N 21°21' W 089°41'0 0.0
2019-Oct-15 18:28N 21°21' W 089°41'0 0.0
2019-Oct-15 18:00N 21°21' W 089°41'0 0.0
2019-Oct-15 17:30N 21°21' W 089°41'0 0.0
2019-Oct-15 16:59N 21°21' W 089°41'0 0.0
2019-Oct-15 16:13N 21°21' W 089°41'0 0.0
2019-Oct-15 15:58N 21°21' W 089°41'0 0.0
2019-Oct-15 15:28N 21°21' W 089°41'0 0.0
2019-Oct-15 14:49N 21°21' W 089°41'0 0.0
2019-Oct-15 14:28N 21°21' W 089°41'0 0.0
2019-Oct-15 13:57N 21°21' W 089°41'0 0.3
2019-Oct-15 13:30N 21°21' W 089°41'510.9
2019-Oct-15 13:00N 21°26' W 089°41'712.9
2019-Oct-15 12:30N 21°32' W 089°37'714.1
2019-Oct-15 12:00N 21°37' W 089°33'816.0
2019-Oct-15 11:30N 21°43' W 089°27'816.5
2019-Oct-15 11:00N 21°45' W 089°18'15012.8
2019-Oct-14 23:16N 20°44' W 086°52'520.2
2019-Oct-14 23:00N 20°40' W 086°55'918.4
2019-Oct-14 22:30N 20°32' W 087°01'4 7.5
2019-Oct-14 22:00N 20°29' W 086°59'0 0.0
2019-Oct-14 21:30N 20°29' W 086°59'0 0.0
2019-Oct-14 20:59N 20°29' W 086°59'0 0.0
2019-Oct-14 20:29N 20°29' W 086°59'0 0.0
2019-Oct-14 19:59N 20°29' W 086°59'0 0.0
2019-Oct-14 19:29N 20°29' W 086°59'0 0.0
2019-Oct-14 18:55N 20°29' W 086°59'0 0.0
2019-Oct-14 18:28N 20°29' W 086°59'0 0.0
2019-Oct-14 17:58N 20°29' W 086°59'0 0.0
2019-Oct-14 17:28N 20°29' W 086°59'0 0.0
2019-Oct-14 16:58N 20°29' W 086°59'0 0.0
2019-Oct-14 16:30N 20°29' W 086°59'0 0.0
2019-Oct-14 16:00N 20°29' W 086°59'0 0.0
2019-Oct-14 15:30N 20°29' W 086°59'0 0.0
2019-Oct-14 15:00N 20°29' W 086°59'0 0.0
2019-Oct-14 14:29N 20°29' W 086°59'0 0.0
2019-Oct-14 13:59N 20°29' W 086°59'0 0.0
2019-Oct-14 13:29N 20°29' W 086°59'0 0.0
2019-Oct-14 13:01N 20°29' W 086°59'0 0.5
2019-Oct-14 12:30N 20°29' W 086°59'2 3.7
2019-Oct-14 12:00N 20°30' W 086°60'3 6.9
2019-Oct-14 11:30N 20°34' W 086°59'4 7.4
2019-Oct-14 11:01N 20°37' W 086°57'510.1
2019-Oct-14 10:30N 20°41' W 086°54'611.4
2019-Oct-14 10:01N 20°46' W 086°51'812.6
2019-Oct-14 09:24N 20°52' W 086°46'1023.8
2019-Oct-14 09:00N 20°54' W 086°36'19314.8 090 / 71011.910.8 29.0 30.0
2019-Oct-13 20:00N 24°00' W 087°30'22718.9 090 / 181012.810.8 28.0 30.0
2019-Oct-13 08:00N 27°36' W 088°48'13314.9 220 / 151013.610.8 27.0 29.0
2019-Oct-12 23:03N 29°37' W 089°53'213.0
2019-Oct-12 22:53N 29°38' W 089°55'712.6
2019-Oct-12 22:20N 29°44' W 089°60'411.3
2019-Oct-12 21:58N 29°48' W 090°01'612.4
2019-Oct-12 21:30N 29°53' W 089°57'3 5.2
2019-Oct-12 20:58N 29°55' W 089°56'612.7
2019-Oct-12 20:30N 29°57' W 090°03'1 2.8
2019-Oct-12 19:59N 29°56' W 090°04'0 0.0
2019-Oct-12 19:28N 29°56' W 090°04'0 0.0
2019-Oct-12 18:58N 29°56' W 090°04'0 0.0
2019-Oct-12 18:25N 29°56' W 090°04'0 0.0
2019-Oct-12 17:55N 29°56' W 090°04'0 0.0
2019-Oct-12 17:28N 29°56' W 090°04'0 0.0
2019-Oct-12 16:59N 29°56' W 090°04'0 0.0
2019-Oct-12 16:30N 29°56' W 090°04'0 0.0
2019-Oct-12 16:00N 29°56' W 090°04'0 0.0
2019-Oct-12 15:30N 29°56' W 090°04'0 0.0
2019-Oct-12 14:56N 29°56' W 090°04'0 0.0
2019-Oct-12 14:23N 29°56' W 090°04'0 0.0
2019-Oct-12 13:56N 29°56' W 090°04'0 0.0
2019-Oct-12 13:29N 29°56' W 090°04'0 0.0
2019-Oct-12 13:00N 29°56' W 090°04'0 0.0
2019-Oct-12 12:30N 29°56' W 090°04'0 0.0
2019-Oct-12 12:00N 29°56' W 090°04'0 0.0
2019-Oct-12 11:30N 29°56' W 090°04'0 0.0
2019-Oct-12 11:00N 29°56' W 090°04'0 0.0
2019-Oct-12 10:30N 29°56' W 090°04'0 0.4
2019-Oct-12 10:00N 29°57' W 090°04'3 6.8
2019-Oct-12 09:30N 29°56' W 089°60'611.1
2019-Oct-12 09:00N 29°53' W 089°54'4 8.6
2019-Oct-12 08:30N 29°51' W 089°59'713.4
2019-Oct-12 08:00N 29°45' W 090°01'712.0
2019-Oct-12 07:25N 29°39' W 089°57'15712.6
2019-Oct-11 19:00N 27°06' W 089°18'32317.4 110 / 111013.610.8 28.0 30.0
2019-Oct-11 00:28N 21°44' W 089°34'818.3
2019-Oct-11 00:00N 21°36' W 089°38'917.3
2019-Oct-10 23:30N 21°28' W 089°41'713.2
2019-Oct-10 23:01N 21°21' W 089°41'1 2.1
2019-Oct-10 22:28N 21°21' W 089°41'0 0.0
2019-Oct-10 21:58N 21°21' W 089°41'0 0.0
2019-Oct-10 21:19N 21°21' W 089°41'0 0.0
2019-Oct-10 21:00N 21°21' W 089°41'0 0.0
2019-Oct-10 20:30N 21°21' W 089°41'0 0.0
2019-Oct-10 19:21N 21°21' W 089°41'0 0.0
2019-Oct-10 19:00N 21°21' W 089°41'0 0.0
2019-Oct-10 18:17N 21°21' W 089°41'0 0.0
2019-Oct-10 17:59N 21°21' W 089°41'0 0.0
2019-Oct-10 17:29N 21°21' W 089°41'0 0.0
2019-Oct-10 16:47N 21°21' W 089°41'0 0.0
2019-Oct-10 16:29N 21°21' W 089°41'0 0.0
2019-Oct-10 15:59N 21°21' W 089°41'0 0.0
2019-Oct-10 15:19N 21°21' W 089°41'0 0.0
2019-Oct-10 14:58N 21°21' W 089°41'0 0.0
2019-Oct-10 14:30N 21°21' W 089°41'0 0.2
2019-Oct-10 14:01N 21°20' W 089°41'4 8.4
2019-Oct-10 13:29N 21°25' W 089°41'714.4
2019-Oct-10 13:00N 21°30' W 089°37'919.4
2019-Oct-10 12:30N 21°37' W 089°29'1019.6
2019-Oct-10 12:00N 21°43' W 089°21'1020.1
2019-Oct-10 11:30N 21°46' W 089°11'1020.0
2019-Oct-10 11:01N 21°49' W 089°01'6722.4
2019-Oct-10 08:00N 21°54' W 087°48'8812.9 070 / 101012.210.8 27.0 30.0
2019-Oct-10 01:12N 20°44' W 086°52'522.5
2019-Oct-10 01:00N 20°40' W 086°55'1019.9
2019-Oct-10 00:31N 20°32' W 087°00'4 7.6
2019-Oct-10 00:00N 20°29' W 086°59'0 0.0
2019-Oct-09 23:27N 20°29' W 086°59'0 0.0
2019-Oct-09 23:00N 20°29' W 086°59'0 0.0
2019-Oct-09 22:30N 20°29' W 086°59'0 0.0
2019-Oct-09 21:59N 20°29' W 086°59'0 0.0
2019-Oct-09 21:29N 20°29' W 086°59'0 0.0
2019-Oct-09 20:59N 20°29' W 086°59'0 0.0
2019-Oct-09 20:29N 20°29' W 086°59'0 0.0
2019-Oct-09 19:58N 20°29' W 086°59'0 0.0
2019-Oct-09 19:28N 20°29' W 086°59'0 0.0
2019-Oct-09 18:58N 20°29' W 086°59'0 0.0
2019-Oct-09 18:28N 20°29' W 086°59'0 0.0
2019-Oct-09 17:58N 20°29' W 086°59'0 0.0
2019-Oct-09 17:30N 20°29' W 086°59'0 0.0
2019-Oct-09 17:00N 20°29' W 086°59'0 0.0
2019-Oct-09 16:30N 20°29' W 086°59'0 0.0
2019-Oct-09 16:00N 20°29' W 086°59'2 3.5
2019-Oct-09 15:31N 20°30' W 086°60'714.4
2019-Oct-09 15:01N 20°37' W 086°57'917.8
2019-Oct-09 14:31N 20°44' W 086°52'3019.7
2019-Oct-09 13:00N 21°06' W 086°30'8019.9 120 / 201012.3 5.4 28.023.728.0
2019-Oct-09 09:00N 22°24' W 086°48'45613.7 180 / 101011.310.8 28.0 30.0
2019-Oct-07 23:40N 29°31' W 089°44'1014.4
2019-Oct-07 23:00N 29°37' W 089°53'912.2
2019-Oct-07 22:15N 29°44' W 089°60'312.7
2019-Oct-07 22:00N 29°47' W 090°01'713.5
2019-Oct-07 21:30N 29°53' W 089°58'3 6.0
2019-Oct-07 20:56N 29°55' W 089°56'613.6
2019-Oct-07 20:30N 29°57' W 090°02'2 3.2
2019-Oct-07 19:58N 29°56' W 090°04'0 0.0
2019-Oct-07 19:28N 29°56' W 090°04'0 0.0
2019-Oct-07 19:01N 29°56' W 090°04'  
Track history (hours):
 
Tides and Currents Weather Stations Pressure Air Temp Water Temp Dewpoint Dewpoint Depression Visibility Wind Speed Wind Dir Waves Ship Positions

Carnival Valor

Last reported at 2019-Oct-17 18:30 UTC. Time now 2019-Oct-17 18:52 UTC.
Position N 29°56' W 090°04'.

Type: Ship. MMSI: 354298000.

Date/timePositionNaut miles runAvg speedWind from/ knotsBaromVisibWave heightAir tempDewpointWater temp
2019-Oct-17 18:30N 29°56' W 090°04'0 0.0
2019-Oct-17 18:00N 29°56' W 090°04'0 0.0
2019-Oct-17 17:29N 29°56' W 090°04'0 0.0
2019-Oct-17 16:59N 29°56' W 090°04'0 0.0
2019-Oct-17 16:29N 29°56' W 090°04'0 0.0
2019-Oct-17 15:59N 29°56' W 090°04'0 0.0
2019-Oct-17 15:28N 29°56' W 090°04'0 0.0
2019-Oct-17 14:58N 29°56' W 090°04'0 0.0
2019-Oct-17 14:25N 29°56' W 090°04'0 0.0
2019-Oct-17 13:55N 29°56' W 090°04'0 0.0
2019-Oct-17 13:28N 29°56' W 090°04'0 0.0
2019-Oct-17 13:00N 29°56' W 090°04'0 0.0
2019-Oct-17 12:30N 29°56' W 090°04'0 0.0
2019-Oct-17 12:00N 29°56' W 090°04'0 0.0
2019-Oct-17 11:30N 29°56' W 090°04'0 0.0
2019-Oct-17 11:00N 29°56' W 090°04'0 0.0
2019-Oct-17 10:30N 29°56' W 090°04'0 0.4
2019-Oct-17 10:00N 29°57' W 090°04'3 6.5
2019-Oct-17 09:30N 29°56' W 089°60'510.4
2019-Oct-17 09:00N 29°54' W 089°55'3 7.0
2019-Oct-17 08:30N 29°53' W 089°58'612.7
2019-Oct-17 08:00N 29°47' W 090°01'612.8
2019-Oct-17 07:30N 29°41' W 089°58'611.7
2019-Oct-17 07:00N 29°37' W 089°53'813.8
2019-Oct-17 06:28N 29°33' W 089°46'715.4
2019-Oct-17 06:00N 29°28' W 089°40'711.6
2019-Oct-17 05:26N 29°23' W 089°35'16519.6
2019-Oct-16 21:00N 27°30' W 087°18'36717.7 350 / 151011.310.8 28.0 30.0
2019-Oct-16 00:19N 21°45' W 089°33'516.2
2019-Oct-16 00:01N 21°40' W 089°36'815.6
2019-Oct-15 23:30N 21°33' W 089°39'714.2
2019-Oct-15 23:00N 21°26' W 089°42'611.5
2019-Oct-15 22:30N 21°21' W 089°41'0 0.6
2019-Oct-15 21:59N 21°21' W 089°41'0 0.0
2019-Oct-15 21:29N 21°21' W 089°41'0 0.0
2019-Oct-15 20:59N 21°21' W 089°41'0 0.0
2019-Oct-15 19:56N 21°21' W 089°41'0 0.0
2019-Oct-15 19:29N 21°21' W 089°41'0 0.0
2019-Oct-15 18:58N 21°21' W 089°41'0 0.0
2019-Oct-15 18:28N 21°21' W 089°41'0 0.0
2019-Oct-15 18:00N 21°21' W 089°41'0 0.0
2019-Oct-15 17:30N 21°21' W 089°41'0 0.0
2019-Oct-15 16:59N 21°21' W 089°41'0 0.0
2019-Oct-15 16:13N 21°21' W 089°41'0 0.0
2019-Oct-15 15:58N 21°21' W 089°41'0 0.0
2019-Oct-15 15:28N 21°21' W 089°41'0 0.0
2019-Oct-15 14:49N 21°21' W 089°41'0 0.0
2019-Oct-15 14:28N 21°21' W 089°41'0 0.0
2019-Oct-15 13:57N 21°21' W 089°41'0 0.3
2019-Oct-15 13:30N 21°21' W 089°41'510.9
2019-Oct-15 13:00N 21°26' W 089°41'712.9
2019-Oct-15 12:30N 21°32' W 089°37'714.1
2019-Oct-15 12:00N 21°37' W 089°33'816.0
2019-Oct-15 11:30N 21°43' W 089°27'816.5
2019-Oct-15 11:00N 21°45' W 089°18'15012.8
2019-Oct-14 23:16N 20°44' W 086°52'520.2
2019-Oct-14 23:00N 20°40' W 086°55'918.4
2019-Oct-14 22:30N 20°32' W 087°01'4 7.5
2019-Oct-14 22:00N 20°29' W 086°59'0 0.0
2019-Oct-14 21:30N 20°29' W 086°59'0 0.0
2019-Oct-14 20:59N 20°29' W 086°59'0 0.0
2019-Oct-14 20:29N 20°29' W 086°59'0 0.0
2019-Oct-14 19:59N 20°29' W 086°59'0 0.0
2019-Oct-14 19:29N 20°29' W 086°59'0 0.0
2019-Oct-14 18:55N 20°29' W 086°59'0 0.0
2019-Oct-14 18:28N 20°29' W 086°59'0 0.0
2019-Oct-14 17:58N 20°29' W 086°59'0 0.0
2019-Oct-14 17:28N 20°29' W 086°59'0 0.0
2019-Oct-14 16:58N 20°29' W 086°59'0 0.0
2019-Oct-14 16:30N 20°29' W 086°59'0 0.0
2019-Oct-14 16:00N 20°29' W 086°59'0 0.0
2019-Oct-14 15:30N 20°29' W 086°59'0 0.0
2019-Oct-14 15:00N 20°29' W 086°59'0 0.0
2019-Oct-14 14:29N 20°29' W 086°59'0 0.0
2019-Oct-14 13:59N 20°29' W 086°59'0 0.0
2019-Oct-14 13:29N 20°29' W 086°59'0 0.0
2019-Oct-14 13:01N 20°29' W 086°59'0 0.5
2019-Oct-14 12:30N 20°29' W 086°59'2 3.7
2019-Oct-14 12:00N 20°30' W 086°60'3 6.9
2019-Oct-14 11:30N 20°34' W 086°59'4 7.4
2019-Oct-14 11:01N 20°37' W 086°57'510.1
2019-Oct-14 10:30N 20°41' W 086°54'611.4
2019-Oct-14 10:01N 20°46' W 086°51'812.6
2019-Oct-14 09:24N 20°52' W 086°46'1023.8
2019-Oct-14 09:00N 20°54' W 086°36'19314.8 090 / 71011.910.8 29.0 30.0
2019-Oct-13 20:00N 24°00' W 087°30'22718.9 090 / 181012.810.8 28.0 30.0
2019-Oct-13 08:00N 27°36' W 088°48'13314.9 220 / 151013.610.8 27.0 29.0
2019-Oct-12 23:03N 29°37' W 089°53'213.0
2019-Oct-12 22:53N 29°38' W 089°55'712.6
2019-Oct-12 22:20N 29°44' W 089°60'411.3
2019-Oct-12 21:58N 29°48' W 090°01'612.4
2019-Oct-12 21:30N 29°53' W 089°57'3 5.2
2019-Oct-12 20:58N 29°55' W 089°56'612.7
2019-Oct-12 20:30N 29°57' W 090°03'1 2.8
2019-Oct-12 19:59N 29°56' W 090°04'0 0.0
2019-Oct-12 19:28N 29°56' W 090°04'0 0.0
2019-Oct-12 18:58N 29°56' W 090°04'0 0.0
2019-Oct-12 18:25N 29°56' W 090°04'0 0.0
2019-Oct-12 17:55N 29°56' W 090°04'0 0.0
2019-Oct-12 17:28N 29°56' W 090°04'0 0.0
2019-Oct-12 16:59N 29°56' W 090°04'0 0.0
2019-Oct-12 16:30N 29°56' W 090°04'0 0.0
2019-Oct-12 16:00N 29°56' W 090°04'0 0.0
2019-Oct-12 15:30N 29°56' W 090°04'0 0.0
2019-Oct-12 14:56N 29°56' W 090°04'0 0.0
2019-Oct-12 14:23N 29°56' W 090°04'0 0.0
2019-Oct-12 13:56N 29°56' W 090°04'0 0.0
2019-Oct-12 13:29N 29°56' W 090°04'0 0.0
2019-Oct-12 13:00N 29°56' W 090°04'0 0.0
2019-Oct-12 12:30N 29°56' W 090°04'0 0.0
2019-Oct-12 12:00N 29°56' W 090°04'0 0.0
2019-Oct-12 11:30N 29°56' W 090°04'0 0.0
2019-Oct-12 11:00N 29°56' W 090°04'0 0.0
2019-Oct-12 10:30N 29°56' W 090°04'0 0.4
2019-Oct-12 10:00N 29°57' W 090°04'3 6.8
2019-Oct-12 09:30N 29°56' W 089°60'611.1
2019-Oct-12 09:00N 29°53' W 089°54'4 8.6
2019-Oct-12 08:30N 29°51' W 089°59'713.4
2019-Oct-12 08:00N 29°45' W 090°01'712.0
2019-Oct-12 07:25N 29°39' W 089°57'15712.6
2019-Oct-11 19:00N 27°06' W 089°18'32317.4 110 / 111013.610.8 28.0 30.0
2019-Oct-11 00:28N 21°44' W 089°34'818.3
2019-Oct-11 00:00N 21°36' W 089°38'917.3
2019-Oct-10 23:30N 21°28' W 089°41'713.2
2019-Oct-10 23:01N 21°21' W 089°41'1 2.1
2019-Oct-10 22:28N 21°21' W 089°41'0 0.0
2019-Oct-10 21:58N 21°21' W 089°41'0 0.0
2019-Oct-10 21:19N 21°21' W 089°41'0 0.0
2019-Oct-10 21:00N 21°21' W 089°41'0 0.0
2019-Oct-10 20:30N 21°21' W 089°41'0 0.0
2019-Oct-10 19:21N 21°21' W 089°41'0 0.0
2019-Oct-10 19:00N 21°21' W 089°41'0 0.0
2019-Oct-10 18:17N 21°21' W 089°41'0 0.0
2019-Oct-10 17:59N 21°21' W 089°41'0 0.0
2019-Oct-10 17:29N 21°21' W 089°41'0 0.0
2019-Oct-10 16:47N 21°21' W 089°41'0 0.0
2019-Oct-10 16:29N 21°21' W 089°41'0 0.0
2019-Oct-10 15:59N 21°21' W 089°41'0 0.0
2019-Oct-10 15:19N 21°21' W 089°41'0 0.0
2019-Oct-10 14:58N 21°21' W 089°41'0 0.0
2019-Oct-10 14:30N 21°21' W 089°41'0 0.2
2019-Oct-10 14:01N 21°20' W 089°41'4 8.4
2019-Oct-10 13:29N 21°25' W 089°41'714.4
2019-Oct-10 13:00N 21°30' W 089°37'919.4
2019-Oct-10 12:30N 21°37' W 089°29'1019.6
2019-Oct-10 12:00N 21°43' W 089°21'1020.1
2019-Oct-10 11:30N 21°46' W 089°11'1020.0
2019-Oct-10 11:01N 21°49' W 089°01'6722.4
2019-Oct-10 08:00N 21°54' W 087°48'8812.9 070 / 101012.210.8 27.0 30.0
2019-Oct-10 01:12N 20°44' W 086°52'522.5
2019-Oct-10 01:00N 20°40' W 086°55'1019.9
2019-Oct-10 00:31N 20°32' W 087°00'4 7.6
2019-Oct-10 00:00N 20°29' W 086°59'0 0.0
2019-Oct-09 23:27N 20°29' W 086°59'0 0.0
2019-Oct-09 23:00N 20°29' W 086°59'0 0.0
2019-Oct-09 22:30N 20°29' W 086°59'0 0.0
2019-Oct-09 21:59N 20°29' W 086°59'0 0.0
2019-Oct-09 21:29N 20°29' W 086°59'0 0.0
2019-Oct-09 20:59N 20°29' W 086°59'0 0.0
2019-Oct-09 20:29N 20°29' W 086°59'0 0.0
2019-Oct-09 19:58N 20°29' W 086°59'0 0.0
2019-Oct-09 19:28N 20°29' W 086°59'0 0.0
2019-Oct-09 18:58N 20°29' W 086°59'0 0.0
2019-Oct-09 18:28N 20°29' W 086°59'0 0.0
2019-Oct-09 17:58N 20°29' W 086°59'0 0.0
2019-Oct-09 17:30N 20°29' W 086°59'0 0.0
2019-Oct-09 17:00N 20°29' W 086°59'0 0.0
2019-Oct-09 16:30N 20°29' W 086°59'0 0.0
2019-Oct-09 16:00N 20°29' W 086°59'2 3.5
2019-Oct-09 15:31N 20°30' W 086°60'714.4
2019-Oct-09 15:01N 20°37' W 086°57'917.8
2019-Oct-09 14:31N 20°44' W 086°52'3019.7
2019-Oct-09 13:00N 21°06' W 086°30'8019.9 120 / 201012.3 5.4 28.023.728.0
2019-Oct-09 09:00N 22°24' W 086°48'45613.7 180 / 101011.310.8 28.0 30.0
2019-Oct-07 23:40N 29°31' W 089°44'1014.4
2019-Oct-07 23:00N 29°37' W 089°53'912.2
2019-Oct-07 22:15N 29°44' W 089°60'312.7
2019-Oct-07 22:00N 29°47' W 090°01'713.5
2019-Oct-07 21:30N 29°53' W 089°58'3 6.0
2019-Oct-07 20:56N 29°55' W 089°56'613.6
2019-Oct-07 20:30N 29°57' W 090°02'2 3.2
2019-Oct-07 19:58N 29°56' W 090°04'0 0.0
2019-Oct-07 19:28N 29°56' W 090°04'0 0.0
2019-Oct-07 19:01N 29°56' W 090°04'  

Dump ship's entire track history